createdAt,value
2022-09-14T01:12:45.414Z,44.64
2022-09-14T01:13:45.996Z,45.57
2022-09-14T01:14:44.907Z,45.37
2022-09-14T01:15:45.322Z,44.79
2022-09-14T01:16:44.791Z,50.62
2022-09-14T01:17:45.065Z,43.37
2022-09-14T01:18:44.975Z,43.82
2022-09-14T01:19:44.398Z,51.50
2022-09-14T01:20:44.406Z,47.44
2022-09-14T01:24:04.170Z,42.56
2022-09-14T01:25:05.395Z,55.53
2022-09-14T01:26:06.186Z,42.79
2022-09-14T01:27:05.641Z,42.63
2022-09-14T01:28:05.521Z,43.84
2022-09-14T01:29:06.359Z,47.11
2022-09-14T01:30:05.874Z,44.67
2022-09-14T01:31:05.754Z,55.31
2022-09-14T01:32:06.093Z,46.92
2022-09-14T01:33:05.422Z,57.06
2022-09-14T01:34:05.509Z,46.25
2022-09-14T01:35:06.096Z,43.32
2022-09-14T01:36:05.330Z,49.41
2022-09-14T01:37:05.578Z,55.52
2022-09-14T01:38:06.097Z,49.26
2022-09-14T01:39:05.516Z,46.05
2022-09-14T01:40:06.732Z,48.26
2022-09-14T01:41:06.104Z,45.54
2022-09-14T01:42:05.501Z,51.40
2022-09-14T01:43:05.445Z,54.25
2022-09-14T01:44:05.291Z,44.67
2022-09-14T01:45:06.099Z,45.71
2022-09-14T02:06:45.034Z,47.25
2022-09-14T02:07:45.674Z,53.48
2022-09-14T02:08:46.610Z,54.57
2022-09-14T02:09:47.177Z,49.10
2022-09-14T02:10:48.268Z,42.42
2022-09-14T02:11:46.695Z,42.47
2022-09-14T02:12:47.030Z,43.32
2022-09-14T02:13:47.238Z,48.87
2022-09-14T02:15:19.775Z,52.26
2022-09-14T02:15:46.049Z,45.97
2022-09-14T02:16:46.219Z,44.34
2022-09-14T02:17:47.064Z,52.71
2022-09-14T02:18:46.031Z,57.89
2022-09-14T02:19:46.710Z,45.35
2022-09-14T02:20:46.114Z,49.07
2022-09-14T02:21:46.063Z,43.99
2022-09-14T02:22:46.951Z,42.92
2022-09-14T02:23:46.074Z,55.52
2022-09-14T02:24:46.111Z,49.90
2022-09-14T02:25:46.050Z,42.19
2022-09-14T02:26:46.019Z,48.98
2022-09-14T02:27:45.996Z,42.13
2022-09-14T02:28:46.024Z,46.88
2022-09-14T02:29:46.087Z,50.96
2022-09-14T02:30:46.286Z,48.30
2022-09-14T02:31:46.349Z,51.81
2022-09-14T02:32:46.743Z,49.95
2022-09-14T02:33:45.923Z,42.71
2022-09-14T02:34:46.135Z,54.75
2022-09-14T02:35:46.036Z,48.76
2022-09-14T02:36:45.938Z,42.49
2022-09-14T02:37:46.012Z,49.32
2022-09-14T02:38:45.942Z,48.55
2022-09-14T02:39:46.015Z,50.65
2022-09-14T02:40:45.935Z,48.27
2022-09-14T02:41:45.865Z,54.66
2022-09-14T02:42:45.894Z,58.86
2022-09-14T02:43:45.944Z,54.69
2022-09-14T02:44:46.482Z,61.55
2022-09-14T02:45:45.931Z,56.91
2022-09-14T02:46:46.006Z,60.96
2022-09-14T02:47:45.989Z,56.32
2022-09-14T02:48:45.918Z,54.53
2022-09-14T02:49:46.609Z,47.73
2022-09-14T02:50:47.217Z,58.72
2022-09-14T02:51:45.842Z,52.58
2022-09-14T02:52:46.718Z,45.54
2022-09-14T02:53:45.905Z,52.32
2022-09-14T02:54:45.824Z,52.84
2022-09-14T02:55:45.827Z,59.09
2022-09-14T02:56:45.868Z,62.34
2022-09-14T02:57:45.891Z,61.53
2022-09-14T02:58:45.867Z,52.83
2022-09-14T02:59:46.727Z,59.79
2022-09-14T03:00:45.922Z,49.40
2022-09-14T03:01:46.074Z,56.41
2022-09-14T03:02:47.222Z,52.29
2022-09-14T03:03:46.223Z,54.92
2022-09-14T03:04:45.876Z,64.23
2022-09-14T03:05:45.793Z,46.09
2022-09-14T03:06:46.253Z,51.18
2022-09-14T03:07:45.704Z,62.26
2022-09-14T03:08:45.706Z,57.96
2022-09-14T03:09:45.731Z,50.35
2022-09-14T03:10:46.443Z,65.94
2022-09-14T03:11:45.751Z,53.71
2022-09-14T03:12:45.764Z,60.12
2022-09-14T03:13:45.676Z,64.61
2022-09-14T03:14:45.786Z,45.10
2022-09-14T03:15:45.811Z,48.62
2022-09-14T03:16:46.593Z,63.54
2022-09-14T03:17:45.783Z,54.89
2022-09-14T03:18:45.699Z,49.36
2022-09-14T03:19:45.708Z,60.25
2022-09-14T03:20:45.641Z,61.17
2022-09-14T03:21:45.624Z,54.02
2022-09-14T03:22:45.603Z,59.65
2022-09-14T03:23:45.635Z,58.94
2022-09-14T03:24:45.622Z,54.72
2022-09-14T03:25:46.227Z,51.20
2022-09-14T03:26:45.654Z,63.57
2022-09-14T03:27:46.228Z,65.59
2022-09-14T03:28:46.225Z,65.96
2022-09-14T03:29:45.697Z,57.85
2022-09-14T03:30:45.693Z,67.81
2022-09-14T03:31:45.621Z,65.52
2022-09-14T03:32:45.574Z,66.52
2022-09-14T03:33:45.562Z,63.17
2022-09-14T03:34:46.289Z,63.66
2022-09-14T03:35:45.508Z,67.49
2022-09-14T03:36:45.585Z,63.14
2022-09-14T03:37:45.482Z,66.04
2022-09-14T03:38:46.244Z,66.25
2022-09-14T03:39:46.154Z,71.70
2022-09-14T03:40:45.601Z,67.24
2022-09-14T03:41:45.615Z,67.01
2022-09-14T03:42:45.642Z,70.17
2022-09-14T03:43:46.240Z,64.22
2022-09-14T03:44:46.131Z,69.70
2022-09-14T03:45:45.458Z,66.01
2022-09-14T03:46:45.623Z,70.60
2022-09-14T04:03:54.669Z,68.79
2022-09-14T04:04:54.654Z,54.08
2022-09-14T04:05:55.909Z,60.31
2022-09-14T04:06:57.170Z,75.41
2022-09-14T04:07:56.675Z,67.38
2022-09-14T04:08:56.040Z,62.91
2022-09-14T04:09:56.674Z,71.24
2022-09-14T04:10:55.853Z,68.83
2022-09-14T04:11:55.882Z,66.97
2022-09-14T04:12:55.865Z,70.04
2022-09-14T04:13:55.797Z,58.46
2022-09-14T04:14:55.880Z,66.19
2022-09-14T04:15:55.897Z,65.72
2022-09-14T04:16:56.483Z,66.21
2022-09-14T04:17:55.880Z,64.69
2022-09-14T04:18:55.887Z,58.61
2022-09-14T04:19:56.683Z,73.57
2022-09-14T04:20:56.471Z,65.07
2022-09-14T04:21:56.678Z,61.20
2022-09-14T04:22:55.760Z,58.97
2022-09-14T04:24:15.187Z,68.66
2022-09-14T04:24:58.175Z,61.90
2022-09-14T04:25:55.720Z,66.14
2022-09-14T04:26:56.914Z,72.82
2022-09-14T04:28:16.772Z,71.17
2022-09-14T04:28:58.511Z,62.26
2022-09-14T04:29:56.679Z,63.96
2022-09-14T04:30:56.640Z,70.92
2022-09-14T04:31:57.199Z,73.79
2022-09-14T04:32:56.036Z,63.64
2022-09-14T04:33:56.636Z,70.19
2022-09-14T04:34:57.209Z,70.12
2022-09-14T04:35:57.178Z,65.67
2022-09-14T04:36:56.005Z,74.99
2022-09-14T04:37:56.648Z,72.81
2022-09-14T04:38:56.204Z,66.65
2022-09-14T04:39:58.235Z,65.11
2022-09-14T04:40:55.776Z,70.57
2022-09-14T04:41:57.200Z,69.53
2022-09-14T04:42:55.650Z,70.92
2022-09-14T04:43:57.244Z,71.40
2022-09-14T04:44:57.224Z,71.88
2022-09-14T04:45:56.559Z,67.53
2022-09-14T04:46:56.767Z,69.88
2022-09-14T04:47:56.573Z,76.48
2022-09-14T04:48:56.639Z,71.26
2022-09-14T04:49:55.555Z,72.09
2022-09-14T04:50:55.717Z,69.68
2022-09-14T04:51:56.624Z,75.64
2022-09-14T04:52:55.714Z,74.98
2022-09-14T04:53:56.218Z,59.09
2022-09-14T04:54:56.211Z,68.52
2022-09-14T04:55:56.531Z,73.27
2022-09-14T04:56:56.587Z,69.43
2022-09-14T04:57:57.132Z,67.32
2022-09-14T04:58:56.627Z,66.24
2022-09-14T04:59:56.205Z,72.76
2022-09-14T05:00:56.495Z,72.65
2022-09-14T05:01:57.253Z,62.90
2022-09-14T05:02:56.024Z,69.15
2022-09-14T05:03:55.851Z,71.22
2022-09-14T08:16:15.922Z,67.18
2022-09-14T08:17:14.889Z,71.27
2022-09-14T08:18:14.910Z,70.14
2022-09-14T08:19:14.868Z,67.12
2022-09-14T08:20:14.883Z,70.03
2022-09-14T08:21:14.916Z,72.15
2022-09-14T08:22:14.892Z,71.11
2022-09-14T08:23:14.864Z,73.64
2022-09-14T08:24:14.886Z,70.83
2022-09-14T08:25:14.845Z,73.34
2022-09-14T08:26:14.847Z,67.67
2022-09-14T08:27:17.282Z,69.52
2022-09-14T08:28:15.832Z,72.72
2022-09-14T08:29:14.813Z,73.93
2022-09-14T08:30:14.803Z,71.68
2022-09-14T08:31:14.921Z,70.57
2022-09-14T08:32:14.796Z,71.15
2022-09-14T08:33:14.798Z,72.94
2022-09-14T08:34:14.832Z,64.66
2022-09-14T08:35:14.760Z,64.75
2022-09-14T08:36:14.756Z,73.51
2022-09-14T08:37:14.740Z,68.02
2022-09-14T08:38:14.959Z,71.35
2022-09-14T08:39:14.765Z,73.36
2022-09-14T08:40:14.801Z,74.68
2022-09-14T08:41:14.771Z,69.34
2022-09-14T08:42:14.730Z,69.20
2022-09-14T08:43:14.698Z,74.29
2022-09-14T08:44:14.725Z,72.01
2022-09-14T08:45:14.764Z,74.98
2022-09-14T08:46:14.782Z,75.16
2022-09-14T08:47:14.683Z,70.72
2022-09-14T08:48:14.736Z,69.80
2022-09-14T08:49:14.709Z,76.81
2022-09-14T08:50:14.713Z,71.61
2022-09-14T08:51:14.678Z,73.64
2022-09-14T08:52:14.630Z,69.30
2022-09-14T08:53:14.686Z,70.77
2022-09-14T08:54:14.653Z,72.35
2022-09-14T08:55:14.672Z,71.23
2022-09-14T08:56:15.604Z,67.91
2022-09-14T08:57:14.617Z,67.96
2022-09-14T08:58:14.604Z,67.04
2022-09-14T08:59:14.586Z,74.43
2022-09-14T09:00:14.641Z,73.68
2022-09-14T09:01:14.622Z,68.73
2022-09-14T09:02:14.565Z,68.80
2022-09-14T09:03:14.585Z,73.72
2022-09-14T09:04:14.630Z,65.57
2022-09-14T09:05:49.631Z,72.92
2022-09-14T09:06:48.753Z,74.57
2022-09-14T09:07:48.771Z,67.82
2022-09-14T09:08:14.525Z,73.50
2022-09-14T09:09:47.785Z,69.93
2022-09-14T09:10:14.492Z,76.55
2022-09-14T09:11:14.529Z,73.93
2022-09-14T09:12:14.488Z,68.80
2022-09-14T09:13:14.505Z,65.91
2022-09-14T09:14:18.231Z,69.21
2022-09-14T09:15:15.480Z,70.04
2022-09-14T09:16:14.564Z,76.17
2022-09-14T09:17:14.469Z,72.61
2022-09-14T09:18:14.438Z,72.42
2022-09-14T09:19:15.444Z,69.11
2022-09-14T09:20:14.445Z,71.63
2022-09-14T09:21:14.465Z,69.26
2022-09-14T09:22:14.438Z,63.63
2022-09-14T09:23:14.411Z,66.86
2022-09-14T09:24:14.423Z,63.25
2022-09-14T09:25:14.460Z,71.92
2022-09-14T09:26:14.408Z,71.57
2022-09-14T09:27:14.398Z,66.60
2022-09-14T09:28:14.388Z,72.03
2022-09-14T09:29:14.469Z,69.05
2022-09-14T09:30:14.392Z,71.09
2022-09-14T09:31:14.946Z,66.78
2022-09-14T09:32:15.377Z,65.99
2022-09-14T09:33:14.369Z,62.18
2022-09-14T09:34:14.353Z,69.63
2022-09-14T09:35:14.304Z,73.83
2022-09-14T09:36:14.345Z,73.17
2022-09-14T09:37:14.297Z,69.45
2022-09-14T09:38:14.323Z,68.04
2022-09-14T09:39:14.288Z,71.15
2022-09-14T09:40:14.358Z,68.61
2022-09-14T09:41:14.301Z,57.72
2022-09-14T09:42:14.261Z,69.72
2022-09-14T09:43:21.308Z,67.96
2022-09-14T09:44:15.286Z,69.37
2022-09-14T09:45:14.269Z,72.77
2022-09-14T09:46:14.280Z,72.96
2022-09-14T09:47:14.265Z,69.80
2022-09-14T09:48:14.274Z,69.90
2022-09-14T09:49:14.208Z,67.75
2022-09-14T09:50:14.343Z,71.14
2022-09-14T09:51:14.231Z,72.80
2022-09-14T09:52:14.245Z,72.77
2022-09-14T09:53:14.251Z,69.42
2022-09-14T09:54:14.252Z,68.50
2022-09-14T09:55:14.243Z,73.29
2022-09-14T09:56:14.183Z,70.56
2022-09-14T09:57:14.183Z,69.00
2022-09-14T09:58:15.219Z,74.24
2022-09-14T09:59:14.157Z,72.39
2022-09-14T10:00:14.189Z,68.10
2022-09-14T10:01:14.174Z,70.13
2022-09-14T10:02:14.249Z,72.04
2022-09-14T10:03:14.150Z,71.73
2022-09-14T10:04:14.111Z,71.68
2022-09-14T10:05:14.125Z,73.13
2022-09-14T10:06:14.088Z,74.25
2022-09-14T10:07:14.208Z,70.70
2022-09-14T10:08:14.086Z,69.22
2022-09-14T10:09:14.141Z,68.44
2022-09-14T10:10:14.162Z,72.02
2022-09-14T10:11:14.111Z,72.01
2022-09-14T10:12:14.093Z,73.17
2022-09-14T10:13:14.092Z,70.43
2022-09-14T10:14:14.037Z,72.04
2022-09-14T10:15:14.060Z,72.48
2022-09-14T10:16:14.100Z,67.65
2022-09-14T10:17:14.059Z,69.42
2022-09-14T10:18:14.032Z,72.84
2022-09-14T10:19:14.005Z,72.26
2022-09-14T10:20:14.096Z,75.06
2022-09-14T10:21:13.992Z,70.32
2022-09-14T10:22:17.193Z,65.34
2022-09-14T10:23:15.044Z,73.15
2022-09-14T10:24:13.949Z,70.42
2022-09-14T10:25:13.993Z,69.58
2022-09-14T10:26:13.986Z,66.34
2022-09-14T10:27:14.017Z,72.40
2022-09-14T10:28:13.924Z,74.18
2022-09-14T10:29:13.946Z,65.71
2022-09-14T10:30:13.999Z,72.51
2022-09-14T10:31:13.954Z,69.97
2022-09-14T10:32:13.906Z,68.26
2022-09-14T10:33:13.925Z,66.34
2022-09-14T10:34:17.215Z,71.23
2022-09-14T10:35:14.915Z,69.28
2022-09-14T10:36:13.907Z,73.10
2022-09-14T10:37:13.915Z,70.69
2022-09-14T10:38:13.846Z,71.88
2022-09-14T10:39:13.853Z,74.35
2022-09-14T10:40:13.922Z,68.48
2022-09-14T10:41:13.834Z,64.25
2022-09-14T10:42:13.849Z,73.08
2022-09-14T10:43:13.823Z,61.88
2022-09-14T10:44:13.842Z,59.07
2022-09-14T10:45:13.820Z,69.87
2022-09-14T10:46:13.916Z,67.92
2022-09-14T10:47:13.799Z,75.53
2022-09-14T10:48:13.789Z,71.67
2022-09-14T10:49:13.786Z,71.48
2022-09-14T10:50:13.771Z,71.90
2022-09-14T10:51:13.782Z,70.98
2022-09-14T10:52:13.800Z,70.73
2022-09-14T10:53:13.746Z,70.60
2022-09-14T10:54:13.897Z,66.17
2022-09-14T10:55:14.508Z,68.06
2022-09-14T10:56:13.731Z,57.75
2022-09-14T10:57:13.731Z,75.95
2022-09-14T10:58:18.106Z,69.88
2022-09-14T10:59:15.740Z,69.56
2022-09-14T11:00:13.696Z,69.16
2022-09-14T11:01:13.817Z,73.03
2022-09-14T11:02:14.105Z,73.76
2022-09-14T11:03:13.769Z,74.57
2022-09-14T11:04:13.659Z,68.40
2022-09-14T11:05:13.682Z,64.85
2022-09-14T11:06:13.674Z,68.77
2022-09-14T11:07:13.668Z,70.60
2022-09-14T11:08:13.649Z,76.26
2022-09-14T11:09:13.627Z,75.02
2022-09-14T11:10:13.612Z,70.63
2022-09-14T11:11:13.638Z,63.55
2022-09-14T11:12:13.652Z,72.62
2022-09-14T11:13:13.605Z,63.46
2022-09-14T11:14:13.598Z,71.14
2022-09-14T11:15:13.601Z,73.57
2022-09-14T11:16:13.611Z,72.78
2022-09-14T11:17:13.608Z,73.20
2022-09-14T11:18:13.569Z,67.67
2022-09-14T11:19:13.592Z,73.46
2022-09-14T11:20:13.541Z,68.25
2022-09-14T11:21:13.577Z,72.02
2022-09-14T11:22:14.243Z,73.95
2022-09-14T11:23:13.516Z,74.79
2022-09-14T11:24:13.635Z,71.98
2022-09-14T11:25:13.510Z,69.54
2022-09-14T11:26:13.545Z,69.75
2022-09-14T11:27:13.519Z,70.15
2022-09-14T11:28:13.489Z,67.74
2022-09-14T11:29:13.496Z,67.07
2022-09-14T11:30:13.499Z,71.55
2022-09-14T11:31:13.551Z,75.53
2022-09-14T11:32:21.992Z,72.25
2022-09-14T11:33:15.459Z,67.95
2022-09-14T11:34:13.498Z,75.76
2022-09-14T11:35:13.452Z,66.77
2022-09-14T11:36:13.448Z,77.03
2022-09-14T11:37:13.450Z,72.78
2022-09-14T11:38:13.436Z,72.33
2022-09-14T11:39:13.431Z,65.93
2022-09-14T11:40:13.486Z,70.52
2022-09-14T11:41:13.409Z,68.65
2022-09-14T11:42:13.441Z,75.07
2022-09-14T11:43:13.459Z,67.32
2022-09-14T11:44:13.382Z,69.08
2022-09-14T11:45:13.331Z,74.54
2022-09-14T11:46:13.418Z,67.32
2022-09-14T11:47:13.352Z,70.59
2022-09-14T11:48:41.373Z,71.42
2022-09-14T11:49:15.379Z,72.36
2022-09-14T11:50:13.343Z,70.49
2022-09-14T11:54:11.499Z,69.26
2022-09-14T11:57:31.587Z,70.41
2022-09-14T11:58:31.602Z,70.17
2022-09-14T11:59:32.786Z,68.34
2022-09-14T12:00:32.527Z,74.53
2022-09-14T12:01:32.476Z,66.89
2022-09-14T12:02:32.548Z,67.83
2022-09-14T12:04:05.847Z,72.62
2022-09-14T12:04:32.387Z,67.43
2022-09-14T12:05:32.431Z,71.09
2022-09-14T12:06:32.377Z,69.32
2022-09-14T12:07:32.377Z,64.22
2022-09-14T12:08:32.377Z,69.75
2022-09-14T12:09:32.340Z,69.68
2022-09-14T12:10:32.385Z,72.18
2022-09-14T12:11:32.352Z,73.00
2022-09-14T12:12:32.338Z,73.15
2022-09-14T12:13:32.317Z,69.68
2022-09-14T12:14:32.341Z,69.83
2022-09-14T12:15:32.422Z,69.59
2022-09-14T12:16:34.570Z,72.94
2022-09-14T12:17:39.766Z,69.89
2022-09-14T12:18:34.338Z,68.10
2022-09-14T12:19:32.305Z,66.53
2022-09-14T12:20:32.270Z,73.61
2022-09-14T12:21:32.245Z,68.21
2022-09-14T12:22:32.303Z,70.02
2022-09-14T12:23:32.240Z,69.30
2022-09-14T12:24:32.270Z,67.62
2022-09-14T12:25:32.239Z,72.51
2022-09-14T12:26:32.221Z,72.13
2022-09-14T12:27:32.392Z,70.40
2022-09-14T12:28:32.231Z,69.67
2022-09-14T12:29:32.226Z,62.96
2022-09-14T12:30:34.860Z,72.46
2022-09-14T12:31:32.231Z,69.95
2022-09-14T12:32:32.207Z,69.52
2022-09-14T12:33:32.210Z,70.43
2022-09-14T12:34:32.250Z,71.54
2022-09-14T12:35:32.131Z,68.85
2022-09-14T12:36:32.183Z,71.08
2022-09-14T12:37:32.140Z,69.44
2022-09-14T12:38:32.218Z,69.92
2022-09-14T12:39:32.178Z,68.11
2022-09-14T12:40:32.190Z,65.60
2022-09-14T12:41:32.115Z,68.47
2022-09-14T12:42:32.145Z,72.37
2022-09-14T12:43:32.096Z,67.15
2022-09-14T12:44:32.159Z,71.54
2022-09-14T12:45:32.078Z,69.19
2022-09-14T12:46:32.130Z,67.52
2022-09-14T12:47:32.054Z,71.19
2022-09-14T12:48:32.082Z,71.26
2022-09-14T12:49:32.116Z,68.00
2022-09-14T12:50:32.084Z,67.39
2022-09-14T12:51:32.093Z,67.69
2022-09-14T12:52:32.021Z,69.17
2022-09-14T12:53:32.067Z,69.27
2022-09-14T12:54:32.033Z,71.27
2022-09-14T12:55:32.032Z,72.56
2022-09-14T12:56:32.024Z,72.44
2022-09-14T12:57:31.995Z,64.49
2022-09-14T12:58:31.986Z,68.84
2022-09-14T12:59:32.009Z,72.65
2022-09-14T13:00:33.851Z,72.31
2022-09-14T13:01:31.986Z,73.50
2022-09-14T13:02:32.018Z,70.24
2022-09-14T13:03:31.975Z,72.35
2022-09-14T13:04:31.959Z,65.97
2022-09-14T13:05:31.935Z,61.95
2022-09-14T13:06:31.943Z,67.70
2022-09-14T13:07:31.956Z,73.05
2022-09-14T13:08:31.928Z,69.38
2022-09-14T13:09:32.865Z,69.94
2022-09-14T13:10:31.900Z,69.95
2022-09-14T13:11:31.972Z,70.92
2022-09-14T13:12:31.915Z,69.01
2022-09-14T13:13:31.883Z,68.02
2022-09-14T13:14:32.598Z,68.62
2022-09-14T13:15:31.977Z,65.28
2022-09-14T13:16:32.048Z,66.67
2022-09-14T13:17:32.194Z,70.79
2022-09-14T13:21:41.576Z,68.21
2022-09-14T13:22:41.543Z,65.29
2022-09-14T13:23:42.690Z,68.88
2022-09-14T13:24:42.642Z,70.18
2022-09-14T13:25:42.697Z,68.23
2022-09-14T13:26:42.669Z,71.80
2022-09-14T13:27:42.729Z,68.73
2022-09-14T13:28:42.655Z,72.74
2022-09-14T13:29:42.628Z,69.69
2022-09-14T13:30:43.363Z,70.61
2022-09-14T13:31:42.696Z,70.87
2022-09-14T13:32:42.637Z,68.73
2022-09-14T13:33:42.605Z,71.37
2022-09-14T13:34:43.348Z,70.18
2022-09-14T13:35:42.613Z,70.24
2022-09-14T13:36:42.616Z,68.56
2022-09-14T13:37:47.572Z,73.40
2022-09-14T13:38:45.235Z,73.35
2022-09-14T13:39:42.668Z,73.76
2022-09-14T13:40:43.242Z,70.41
2022-09-14T13:41:42.591Z,70.87
2022-09-14T13:42:42.544Z,71.85
2022-09-14T13:43:42.549Z,67.46
2022-09-14T13:44:42.537Z,72.17
2022-09-14T13:45:42.595Z,69.27
2022-09-14T13:46:42.565Z,69.09
2022-09-14T13:47:42.493Z,70.33
2022-09-14T13:48:43.482Z,71.51
2022-09-14T13:49:42.569Z,68.64
2022-09-14T13:50:43.273Z,70.84
2022-09-14T13:51:42.475Z,72.61
2022-09-14T13:53:01.329Z,70.26
2022-09-14T13:53:44.498Z,71.43
2022-09-14T13:54:42.484Z,71.20
2022-09-14T13:55:42.477Z,69.16
2022-09-14T13:56:42.462Z,70.22
2022-09-14T13:57:42.444Z,70.46
2022-09-14T13:58:42.409Z,74.07
2022-09-14T13:59:42.413Z,68.09
2022-09-14T14:00:42.711Z,70.55
2022-09-14T14:01:42.533Z,72.53
2022-09-14T14:02:45.900Z,72.86
2022-09-14T14:03:43.394Z,63.54
2022-09-14T14:04:42.357Z,73.12
2022-09-14T14:05:42.349Z,72.29
2022-09-14T14:06:42.389Z,71.40
2022-09-14T14:07:42.343Z,70.23
2022-09-14T14:08:42.353Z,66.15
2022-09-14T14:09:42.343Z,72.06
2022-09-14T14:10:42.360Z,69.30
2022-09-14T14:11:42.354Z,65.04
2022-09-14T14:12:42.383Z,70.49
2022-09-14T14:13:42.292Z,71.88
2022-09-14T14:14:42.318Z,72.19
2022-09-14T14:15:42.318Z,70.65
2022-09-14T14:16:42.394Z,69.02
2022-09-14T14:17:42.386Z,70.28
2022-09-14T14:18:42.433Z,70.09
2022-09-14T14:19:42.246Z,64.67
2022-09-14T14:20:42.323Z,71.36
2022-09-14T14:21:42.237Z,66.74
2022-09-14T14:22:42.244Z,69.87
2022-09-14T14:23:56.685Z,70.64
2022-09-14T14:25:09.554Z,69.50
2022-09-14T14:25:46.205Z,70.04
2022-09-14T14:26:43.246Z,70.83
2022-09-14T14:27:42.178Z,69.62
2022-09-14T14:28:47.416Z,68.70
2022-09-14T14:29:42.188Z,68.88
2022-09-14T14:30:42.228Z,70.30
2022-09-14T14:31:42.200Z,65.15
2022-09-14T14:32:42.213Z,65.44
2022-09-14T14:33:42.133Z,70.72
2022-09-14T14:34:42.190Z,66.00
2022-09-14T14:35:42.135Z,70.08
2022-09-14T14:36:42.151Z,69.04
2022-09-14T14:37:42.178Z,68.29
2022-09-14T14:38:42.138Z,69.57
2022-09-14T14:39:44.405Z,72.27
2022-09-14T14:40:43.356Z,69.88
2022-09-14T14:41:42.080Z,69.91
2022-09-14T14:42:42.191Z,71.23
2022-09-14T14:43:42.109Z,69.68
2022-09-14T14:44:42.713Z,69.10
2022-09-14T14:45:42.116Z,68.17
2022-09-14T14:46:42.051Z,68.51
2022-09-14T14:47:42.364Z,67.63
2022-09-14T14:48:42.045Z,72.18
2022-09-14T14:49:42.042Z,70.14
2022-09-14T14:50:42.066Z,70.66
2022-09-14T14:51:42.061Z,69.90
2022-09-14T14:52:42.677Z,70.94
2022-09-14T14:53:42.004Z,68.56
2022-09-14T14:54:42.028Z,73.04
2022-09-14T14:55:42.045Z,70.34
2022-09-14T14:56:42.005Z,68.61
2022-09-14T14:57:42.675Z,71.28
2022-09-14T14:58:42.061Z,68.78
2022-09-14T14:59:41.924Z,67.36
2022-09-14T15:00:42.046Z,70.29
2022-09-14T15:01:41.976Z,70.78
2022-09-14T15:02:41.933Z,72.40
2022-09-14T15:03:42.027Z,69.15
2022-09-14T15:04:41.907Z,70.64
2022-09-14T15:05:41.887Z,71.42
2022-09-14T15:06:41.896Z,69.89
2022-09-14T15:07:41.878Z,63.42
2022-09-14T15:08:41.893Z,69.50
2022-09-14T15:09:41.878Z,72.90
2022-09-14T15:10:41.912Z,69.66
2022-09-14T15:11:41.830Z,68.95
2022-09-14T15:12:44.018Z,67.80
2022-09-14T15:13:43.766Z,72.22
2022-09-14T15:14:41.868Z,67.72
2022-09-14T15:15:41.875Z,71.16
2022-09-14T15:16:41.909Z,68.90
2022-09-14T15:17:41.846Z,71.29
2022-09-14T15:18:41.858Z,70.88
2022-09-14T15:19:41.821Z,69.28
2022-09-14T15:20:41.806Z,71.77
2022-09-14T15:21:41.785Z,68.15
2022-09-14T15:22:41.777Z,71.23
2022-09-14T15:23:41.788Z,70.14
2022-09-14T15:24:41.886Z,69.05
2022-09-14T15:25:42.764Z,69.17
2022-09-14T15:26:41.771Z,69.21
2022-09-14T15:27:41.754Z,72.35
2022-09-14T15:28:41.813Z,70.46
2022-09-14T15:29:41.741Z,68.83
2022-09-14T15:30:41.770Z,72.51
2022-09-14T15:31:41.814Z,65.77
2022-09-14T15:32:41.691Z,72.00
2022-09-14T15:33:41.727Z,69.91
2022-09-14T15:34:41.751Z,64.85
2022-09-14T15:35:41.808Z,69.74
2022-09-14T15:36:41.705Z,69.96
2022-09-14T15:37:41.734Z,65.58
2022-09-14T15:38:41.652Z,68.78
2022-09-14T15:39:41.656Z,66.96
2022-09-14T15:40:42.315Z,68.88
2022-09-14T15:44:32.903Z,68.56
2022-09-14T15:45:32.222Z,70.50
2022-09-14T15:46:32.166Z,68.20
2022-09-14T15:47:36.258Z,70.13
2022-09-14T15:48:33.190Z,70.57
2022-09-14T15:49:33.210Z,67.19
2022-09-14T15:50:32.147Z,71.20
2022-09-14T15:51:32.132Z,70.91
2022-09-14T15:52:32.107Z,71.28
2022-09-14T15:53:32.141Z,70.77
2022-09-14T15:54:32.113Z,61.43
2022-09-14T15:55:32.104Z,68.81
2022-09-14T15:56:32.102Z,72.52
2022-09-14T15:57:32.088Z,70.36
2022-09-14T15:58:32.072Z,68.10
2022-09-14T15:59:32.143Z,68.74
2022-09-14T16:00:32.156Z,71.17
2022-09-14T16:01:32.177Z,71.07
2022-09-14T16:02:32.109Z,63.09
2022-09-14T16:03:32.050Z,67.84
2022-09-14T16:04:32.041Z,69.07
2022-09-14T16:05:32.027Z,67.98
2022-09-14T16:06:32.037Z,63.48
2022-09-14T16:07:32.046Z,66.22
2022-09-14T16:08:31.982Z,66.24
2022-09-14T16:09:32.025Z,65.97
2022-09-14T16:10:32.010Z,68.73
2022-09-14T16:11:31.960Z,68.97
2022-09-14T16:12:31.990Z,67.41
2022-09-14T16:13:32.018Z,63.84
2022-09-14T16:14:32.026Z,70.10
2022-09-14T16:15:32.006Z,70.30
2022-09-14T16:16:32.024Z,66.63
2022-09-14T16:17:32.941Z,70.91
2022-09-14T16:18:31.967Z,69.05
2022-09-14T16:19:31.975Z,71.67
2022-09-14T16:20:31.912Z,67.48
2022-09-14T16:21:31.921Z,66.64
2022-09-14T16:22:31.952Z,66.01
2022-09-14T16:23:31.888Z,70.33
2022-09-14T16:24:31.929Z,68.10
2022-09-14T16:25:31.898Z,66.91
2022-09-14T16:26:31.885Z,70.72
2022-09-14T16:27:31.851Z,61.57
2022-09-14T16:28:31.849Z,72.01
2022-09-14T16:29:31.854Z,66.56
2022-09-14T16:30:31.850Z,69.83
2022-09-14T16:31:31.846Z,70.06
2022-09-14T16:32:31.833Z,64.19
2022-09-14T16:33:32.540Z,68.77
2022-09-14T16:34:31.820Z,69.41
2022-09-14T16:35:31.809Z,67.03
2022-09-14T16:36:31.807Z,67.42
2022-09-14T16:37:31.769Z,68.98
2022-09-14T16:38:31.808Z,69.91
2022-09-14T16:39:31.799Z,70.97
2022-09-14T16:40:31.827Z,68.33
2022-09-14T16:41:31.806Z,70.56
2022-09-14T16:42:31.731Z,67.86
2022-09-14T16:43:31.726Z,69.34
2022-09-14T16:44:31.783Z,67.30
2022-09-14T16:45:31.806Z,71.58
2022-09-14T16:46:31.712Z,68.16
2022-09-14T16:47:31.740Z,64.82
2022-09-14T16:48:31.789Z,72.00
2022-09-14T16:49:31.732Z,67.42
2022-09-14T16:50:31.754Z,68.21
2022-09-14T16:51:31.675Z,66.74
2022-09-14T16:52:31.662Z,68.20
2022-09-14T16:53:31.659Z,67.89
2022-09-14T16:54:31.638Z,57.93
2022-09-14T16:55:31.657Z,64.07
2022-09-14T16:56:31.643Z,67.40
2022-09-14T16:57:31.638Z,71.36
2022-09-14T16:58:31.665Z,62.38
2022-09-14T16:59:32.579Z,67.82
2022-09-14T17:00:31.698Z,64.24
2022-09-14T17:01:31.715Z,67.40
2022-09-14T17:02:31.660Z,71.48
2022-09-14T17:03:31.961Z,64.11
2022-09-14T17:04:32.588Z,59.89
2022-09-14T17:05:31.588Z,61.63
2022-09-14T17:06:31.588Z,68.16
2022-09-14T17:07:31.610Z,68.07
2022-09-14T17:08:31.592Z,67.60
2022-09-14T17:09:31.573Z,65.06
2022-09-14T17:10:31.602Z,65.62
2022-09-14T17:11:31.561Z,69.64
2022-09-14T17:12:31.553Z,67.72
2022-09-14T17:13:31.529Z,58.44
2022-09-14T17:14:31.852Z,64.66
2022-09-14T17:15:31.534Z,67.79
2022-09-14T17:16:31.539Z,64.49
2022-09-14T17:17:31.479Z,66.15
2022-09-14T17:18:31.501Z,67.08
2022-09-14T17:19:31.507Z,64.80
2022-09-14T17:20:31.466Z,64.75
2022-09-14T17:21:31.498Z,66.63
2022-09-14T17:22:31.475Z,65.34
2022-09-14T17:23:31.484Z,65.28
2022-09-14T17:24:31.484Z,61.34
2022-09-14T17:25:32.061Z,63.61
2022-09-14T17:26:31.499Z,69.82
2022-09-14T17:27:32.107Z,65.08
2022-09-14T17:28:31.484Z,70.85
2022-09-14T17:29:31.421Z,65.98
2022-09-14T17:30:31.513Z,58.93
2022-09-14T17:31:31.446Z,62.33
2022-09-14T17:32:31.389Z,64.34
2022-09-14T17:33:31.424Z,66.31
2022-09-14T17:34:31.431Z,64.56
2022-09-14T17:35:31.364Z,61.69
2022-09-14T17:36:31.346Z,69.16
2022-09-14T17:37:31.384Z,63.32
2022-09-14T17:38:31.391Z,68.67
2022-09-14T17:39:31.392Z,63.96
2022-09-14T17:40:32.121Z,60.18
2022-09-14T17:41:32.055Z,67.23
2022-09-14T17:42:31.327Z,60.90
2022-09-14T17:43:31.302Z,66.41
2022-09-14T17:44:31.326Z,72.74
2022-09-14T17:45:31.295Z,68.59
2022-09-14T17:46:31.373Z,64.80
2022-09-14T17:47:31.251Z,69.56
2022-09-14T17:48:31.304Z,61.98
2022-09-14T17:49:31.266Z,66.40
2022-09-14T17:50:31.262Z,63.23
2022-09-14T17:51:32.273Z,61.88
2022-09-14T17:52:31.234Z,68.28
2022-09-14T17:53:31.265Z,66.56
2022-09-14T17:54:31.212Z,62.39
2022-09-14T17:55:31.249Z,64.46
2022-09-14T17:56:31.288Z,63.07
2022-09-14T17:57:31.176Z,67.07
2022-09-14T17:58:31.179Z,66.97
2022-09-14T17:59:31.148Z,55.39
2022-09-14T18:00:31.159Z,60.84
2022-09-14T18:01:31.287Z,63.93
2022-09-14T18:02:31.182Z,64.17
2022-09-14T18:03:31.189Z,62.38
2022-09-14T18:04:31.161Z,66.44
2022-09-14T18:05:31.103Z,65.08
2022-09-14T18:06:31.859Z,58.90